Andalusia, Alabama
Current Conditions -  °F | °C
As of 6:07 PM on Sunday 21 Dec 2014 (Local Time) from K79J Reporting Station
Haze Haze  
Wind Chill: 57°   Ceiling: 600
Heat Index: 57°   Visibility: 6mi
Dew Point: 54°   Wind: 7mph
Humidity: 88%   Direction: 130°SE
Pressure: 30.04"   Gusts: NA
Location:  31.32°N, 86.49°W
Report Text: K79J 220007Z AUTO 13006KT 6SM HZ BKN006 OVC010 14/12 A3004 RMK AO2 CIG 003V008
Loading
Personal Weather Stations






























Interactive Weather Map New forecast layout! Learn more

10-Day Weather Forecast

Advertisements
Track Severe Weather on mobile